createdAt,value
2023-04-16T00:04:04.464Z,102186.56
2023-04-16T00:09:07.749Z,102190.91
2023-04-16T00:14:32.768Z,102187.44
2023-04-16T00:19:35.775Z,102170.06
2023-04-16T00:24:38.724Z,102163.09
2023-04-16T00:29:43.049Z,102167.41
2023-04-16T00:34:45.942Z,102166.56
2023-04-16T00:40:07.428Z,102155.25
2023-04-16T00:45:12.939Z,102150.03
2023-04-16T00:50:15.988Z,102157.00
2023-04-16T00:55:19.110Z,102158.72
2023-04-16T01:00:23.473Z,102165.69
2023-04-16T01:05:42.569Z,102165.69
2023-04-16T01:10:45.508Z,102168.31
2023-04-16T01:15:49.672Z,102168.31
2023-04-16T01:20:53.976Z,102158.72
2023-04-16T01:25:56.850Z,102168.31
2023-04-16T01:31:19.580Z,102165.69
2023-04-16T01:36:33.405Z,102170.03
2023-04-16T01:41:36.315Z,102167.44
2023-04-16T01:46:39.343Z,102175.25
2023-04-16T01:51:43.540Z,102174.38
2023-04-16T01:56:55.661Z,102175.25
2023-04-16T02:01:58.912Z,102183.06
2023-04-16T02:07:03.275Z,102175.25
2023-04-16T02:12:06.399Z,102172.66
2023-04-16T02:17:09.315Z,102178.75
2023-04-16T02:22:33.860Z,102179.59
2023-04-16T02:27:36.752Z,102176.13
2023-04-16T02:32:54.709Z,102181.34
2023-04-16T02:37:59.869Z,102189.19
2023-04-16T02:43:02.952Z,102190.91
2023-04-16T02:48:09.629Z,102197.00
2023-04-16T02:53:13.768Z,102196.13
2023-04-16T02:58:16.517Z,102197.00
2023-04-16T03:03:19.764Z,102190.94
2023-04-16T03:08:25.158Z,102187.44
2023-04-16T03:13:48.330Z,102188.31
2023-04-16T03:18:51.181Z,102194.41
2023-04-16T03:23:56.108Z,102201.38
2023-04-16T03:28:58.994Z,102195.25
2023-04-16T03:34:03.652Z,102206.59
2023-04-16T03:39:22.486Z,102206.56
2023-04-16T03:44:25.361Z,102197.00
2023-04-16T03:49:28.391Z,102197.88
2023-04-16T03:54:32.719Z,102194.38
2023-04-16T03:59:47.604Z,102191.78
2023-04-16T04:04:57.735Z,102192.66
2023-04-16T04:10:02.329Z,102183.94
2023-04-16T04:15:09.169Z,102171.75
2023-04-16T04:20:13.406Z,102187.44
2023-04-16T04:25:20.723Z,102190.91
2023-04-16T04:30:35.797Z,102185.69
2023-04-16T04:35:38.811Z,102185.69
2023-04-16T04:40:43.204Z,102199.63
2023-04-16T04:45:46.304Z,102200.50
2023-04-16T04:50:49.363Z,102194.41
2023-04-16T04:56:13.093Z,102206.56
2023-04-16T05:01:16.909Z,102208.31
2023-04-16T05:06:19.799Z,102214.41
2023-04-16T05:11:24.066Z,102225.72
2023-04-16T05:16:27.006Z,102221.38
2023-04-16T05:21:46.868Z,102230.94
2023-04-16T05:26:51.316Z,102224.84
2023-04-16T05:31:54.380Z,102222.22
2023-04-16T05:36:57.419Z,102224.84
2023-04-16T05:42:02.652Z,102236.16
2023-04-16T05:47:23.484Z,102235.28
2023-04-16T05:52:26.370Z,102231.81
2023-04-16T05:57:30.731Z,102244.84
2023-04-16T06:02:33.791Z,102250.09
2023-04-16T06:07:36.861Z,102247.47
2023-04-16T06:13:01.002Z,102250.06
2023-04-16T06:18:03.943Z,102259.66
2023-04-16T06:23:06.806Z,102265.75
2023-04-16T06:28:11.031Z,102270.09
2023-04-16T06:33:13.946Z,102271.81
2023-04-16T06:38:35.714Z,102277.06
2023-04-16T06:43:39.879Z,102277.94
2023-04-16T06:48:42.791Z,102281.41
2023-04-16T06:53:45.848Z,102286.66
2023-04-16T06:58:50.866Z,102287.50
2023-04-16T07:04:13.169Z,102297.94
2023-04-16T07:09:17.259Z,102297.97
2023-04-16T07:14:21.403Z,102303.16
2023-04-16T07:19:24.184Z,102311.03
2023-04-16T07:24:27.082Z,102304.06
2023-04-16T07:29:50.322Z,102315.38
2023-04-16T07:34:53.261Z,102325.81
2023-04-16T07:39:57.642Z,102327.56
2023-04-16T07:45:01.916Z,102325.84
2023-04-16T07:50:05.845Z,102333.63
2023-04-16T07:55:27.213Z,102337.97
2023-04-16T08:00:31.544Z,102334.53
2023-04-16T08:05:34.554Z,102331.94
2023-04-16T08:10:37.346Z,102340.63
2023-04-16T08:15:41.490Z,102342.38
2023-04-16T08:20:44.409Z,102345.00
2023-04-16T08:25:47.184Z,102357.22
2023-04-16T08:31:11.964Z,102361.53
2023-04-16T08:36:14.804Z,102360.69
2023-04-16T08:41:17.792Z,102363.28
2023-04-16T08:46:23.984Z,102376.34
2023-04-16T08:51:27.396Z,102377.22
2023-04-16T08:56:51.128Z,102388.53
2023-04-16T09:01:57.843Z,102399.88
2023-04-16T09:07:01.208Z,102404.25
2023-04-16T09:12:04.357Z,102403.34
2023-04-16T09:17:08.614Z,102408.56
2023-04-16T09:22:31.815Z,102405.97
2023-04-16T09:27:36.957Z,102392.00
2023-04-16T09:32:41.243Z,102405.94
2023-04-16T09:37:44.075Z,102418.16
2023-04-16T09:42:49.100Z,102419.91
2023-04-16T09:48:13.659Z,102431.25
2023-04-16T09:53:24.848Z,102427.75
2023-04-16T09:58:28.556Z,102440.81
2023-04-16T10:03:33.720Z,102447.78
2023-04-16T10:08:38.884Z,102456.53
2023-04-16T10:13:49.198Z,102458.28
2023-04-16T10:18:54.617Z,102466.09
2023-04-16T10:23:57.450Z,102462.59
2023-04-16T10:29:00.300Z,102471.31
2023-04-16T10:34:04.874Z,102470.44
2023-04-16T10:39:26.354Z,102477.44
2023-04-16T10:44:32.686Z,102478.22
2023-04-16T10:49:37.070Z,102476.41
2023-04-16T10:54:40.409Z,102476.34
2023-04-16T10:59:44.242Z,102482.44
2023-04-16T11:05:04.139Z,102482.41
2023-04-16T11:10:08.099Z,102485.94
2023-04-16T11:15:14.510Z,102480.69
2023-04-16T11:20:21.289Z,102484.22
2023-04-16T11:25:25.218Z,102485.97
2023-04-16T11:30:40.092Z,102485.09
2023-04-16T11:35:45.933Z,102492.94
2023-04-16T11:40:51.560Z,102499.72
2023-04-16T11:45:58.367Z,102484.00
2023-04-16T11:51:02.659Z,102494.41
2023-04-16T11:56:14.519Z,102494.41
2023-04-16T12:01:21.472Z,102491.75
2023-04-16T12:06:27.691Z,102499.56
2023-04-16T12:11:40.756Z,102497.84
2023-04-16T12:17:18.910Z,102496.97
2023-04-16T12:22:31.365Z,102503.09
2023-04-16T12:27:45.544Z,102502.22
2023-04-16T12:32:50.914Z,102506.53
2023-04-16T12:37:55.258Z,102502.84
2023-04-16T12:42:59.285Z,102507.22
2023-04-16T12:48:02.355Z,102509.69
2023-04-16T12:53:06.680Z,102518.41
2023-04-16T12:58:11.818Z,102521.84
2023-04-16T13:03:16.146Z,102523.69
2023-04-16T13:08:20.484Z,102516.66
2023-04-16T13:13:23.456Z,102525.41
2023-04-16T13:18:26.814Z,102521.91
2023-04-16T13:23:31.400Z,102528.03
2023-04-16T13:28:34.307Z,102527.25
2023-04-16T13:33:44.294Z,102526.47
2023-04-16T13:38:50.549Z,102517.78
2023-04-16T13:43:53.364Z,102525.53
2023-04-16T13:48:56.360Z,102513.28
2023-04-16T13:54:00.585Z,102517.84
2023-04-16T13:59:03.574Z,102517.75
2023-04-16T14:04:16.179Z,102511.69
2023-04-16T14:09:20.494Z,102509.84
2023-04-16T14:14:25.857Z,102516.78
2023-04-16T14:19:28.720Z,102511.53
2023-04-16T14:24:32.981Z,102522.03
2023-04-16T14:29:52.289Z,102523.81
2023-04-16T14:34:55.135Z,102522.25
2023-04-16T14:39:59.391Z,102524.97
2023-04-16T14:45:02.175Z,102523.25
2023-04-16T14:50:06.253Z,102524.13
2023-04-16T14:55:30.021Z,102519.78
2023-04-16T15:00:35.122Z,102527.63
2023-04-16T15:05:40.008Z,102526.75
2023-04-16T15:10:45.757Z,102518.84
2023-04-16T15:15:48.655Z,102518.00
2023-04-16T15:21:05.308Z,102510.06
2023-04-16T15:26:09.385Z,102507.34
2023-04-16T15:31:12.640Z,102507.25
2023-04-16T15:36:15.580Z,102507.31
2023-04-16T15:41:19.972Z,102512.66
2023-04-16T15:46:41.937Z,102506.63
2023-04-16T15:51:44.964Z,102505.75
2023-04-16T15:56:49.255Z,102513.66
2023-04-16T16:01:52.152Z,102513.75
2023-04-16T16:06:55.614Z,102518.16
2023-04-16T16:12:19.559Z,102521.66
2023-04-16T16:17:22.437Z,102517.31
2023-04-16T16:22:25.409Z,102518.19
2023-04-16T16:27:29.620Z,102516.50
2023-04-16T16:32:32.552Z,102532.22
2023-04-16T16:37:57.153Z,102527.06
2023-04-16T16:43:01.383Z,102536.69
2023-04-16T16:48:04.594Z,102527.09
2023-04-16T16:53:07.510Z,102534.06
2023-04-16T16:58:11.911Z,102538.50
2023-04-16T17:03:30.973Z,102536.72
2023-04-16T17:08:33.908Z,102535.00
2023-04-16T17:13:38.232Z,102541.13
2023-04-16T17:18:41.300Z,102528.03
2023-04-16T17:23:44.279Z,102526.28
2023-04-16T17:29:08.569Z,102528.03
2023-04-16T17:34:11.641Z,102535.03
2023-04-16T17:39:14.744Z,102529.78
2023-04-16T17:44:18.971Z,102541.13
2023-04-16T17:49:21.822Z,102535.91
2023-04-16T17:54:43.596Z,102535.91
2023-04-16T17:59:47.901Z,102532.41
2023-04-16T18:04:51.404Z,102536.78
2023-04-16T18:09:54.708Z,102540.25
2023-04-16T18:14:59.229Z,102546.38
2023-04-16T18:20:19.752Z,102547.22
2023-04-16T18:25:32.224Z,102559.41
2023-04-16T18:30:40.474Z,102566.41
2023-04-16T18:35:43.611Z,102569.84
2023-04-16T18:40:47.018Z,102573.31
2023-04-16T18:45:56.880Z,102579.44
2023-04-16T18:50:59.819Z,102573.34
2023-04-16T18:56:02.819Z,102582.91
2023-04-16T19:01:11.267Z,102588.16
2023-04-16T19:06:14.431Z,102588.16
2023-04-16T19:11:32.340Z,102596.88
2023-04-16T19:16:36.567Z,102596.88
2023-04-16T19:21:40.730Z,102602.06
2023-04-16T19:26:43.535Z,102608.16
2023-04-16T19:31:48.889Z,102608.16
2023-04-16T19:37:08.445Z,102606.38
2023-04-16T19:42:11.315Z,102603.78
2023-04-16T19:47:16.131Z,102602.06
2023-04-16T19:52:19.127Z,102602.06
2023-04-16T19:57:22.130Z,102610.75
2023-04-16T20:02:45.935Z,102604.63
2023-04-16T20:07:50.774Z,102606.34
2023-04-16T20:12:55.389Z,102616.81
2023-04-16T20:17:59.722Z,102612.44
2023-04-16T20:23:04.816Z,102606.31
2023-04-16T20:28:21.709Z,102609.78
2023-04-16T20:33:25.973Z,102598.44
2023-04-16T20:38:32.346Z,102602.81
2023-04-16T20:43:38.561Z,102600.19
2023-04-16T20:48:43.220Z,102587.06
2023-04-16T20:53:58.435Z,102588.81
2023-04-16T20:59:01.453Z,102587.94
2023-04-16T21:04:06.716Z,102586.19
2023-04-16T21:09:10.167Z,102584.47
2023-04-16T21:14:15.487Z,102585.38
2023-04-16T21:19:34.821Z,102583.59
2023-04-16T21:24:37.761Z,102583.56
2023-04-16T21:29:40.626Z,102580.09
2023-04-16T21:34:44.832Z,102586.13
2023-04-16T21:39:47.657Z,102580.03
2023-04-16T21:45:10.417Z,102580.03
2023-04-16T21:50:14.939Z,102585.25
2023-04-16T21:55:17.994Z,102583.56
2023-04-16T22:00:21.343Z,102574.00
2023-04-16T22:05:25.773Z,102581.81
2023-04-16T22:10:46.359Z,102584.38
2023-04-16T22:15:49.250Z,102591.34
2023-04-16T22:20:55.283Z,102592.22
2023-04-16T22:25:58.231Z,102584.38
2023-04-16T22:31:01.212Z,102590.47
2023-04-16T22:36:24.019Z,102588.69
2023-04-16T22:41:27.199Z,102581.75
2023-04-16T22:46:30.945Z,102582.63
2023-04-16T22:51:35.282Z,102580.00
2023-04-16T22:56:38.944Z,102579.16
2023-04-16T23:01:58.978Z,102579.09
2023-04-16T23:07:03.204Z,102587.84
2023-04-16T23:12:06.380Z,102592.13
2023-04-16T23:17:09.251Z,102592.13
2023-04-16T23:22:13.414Z,102593.00
2023-04-16T23:27:34.596Z,102597.34
2023-04-16T23:32:37.514Z,102585.16
2023-04-16T23:37:41.970Z,102589.53
2023-04-16T23:42:44.870Z,102592.13
2023-04-16T23:48:06.690Z,102593.00
2023-04-16T23:53:14.254Z,102596.53
2023-04-16T23:58:17.209Z,102603.50
